Time;durP1;ratioP1;P1;durP2;ratioP2;P2;SDS_P1;SDS_P2;PMS_P1;PMS_P2;Temp;Humidity;BMP_temperature;BMP_pressure;BME280_temperature;BME280_humidity;BME280_pressure;Samples;Min_cycle;Max_cycle;Signal;HPM_P1;HPM_P2
2023/07/01 00:00:24;;;;;;;3.75;2.42;;;;;;;20.00;58.37;100977.06;4976311;28;20046;-50
2023/07/01 00:02:53;;;;;;;4.10;2.55;;;;;;;20.19;57.98;100982.84;4976458;28;20062;-47
2023/07/01 00:05:20;;;;;;;5.38;2.95;;;;;;;19.78;59.42;100969.09;4976330;28;20027;-49
2023/07/01 00:07:47;;;;;;;5.97;2.90;;;;;;;19.93;59.21;100981.09;4976333;28;20031;-48
2023/07/01 00:10:13;;;;;;;4.63;2.97;;;;;;;20.18;57.81;100986.66;4976370;28;20465;-54
2023/07/01 00:12:40;;;;;;;5.55;2.70;;;;;;;19.92;58.64;100977.56;4976258;28;20041;-51
2023/07/01 00:15:06;;;;;;;6.82;3.13;;;;;;;20.02;57.74;100976.78;4976210;28;20034;-53
2023/07/01 00:17:32;;;;;;;4.32;2.85;;;;;;;19.31;60.04;100970.94;4976097;28;20384;-55
2023/07/01 00:19:59;;;;;;;4.07;2.90;;;;;;;19.50;61.38;100972.16;4976515;28;20026;-56
2023/07/01 00:22:25;;;;;;;4.35;2.75;;;;;;;19.42;59.84;100970.75;4976214;28;20023;-50
2023/07/01 00:24:51;;;;;;;4.57;3.33;;;;;;;18.75;62.21;100975.91;4976721;28;20451;-52
2023/07/01 00:27:17;;;;;;;4.43;3.10;;;;;;;18.67;62.12;100972.59;4976090;28;20134;-57
2023/07/01 00:29:44;;;;;;;5.68;2.38;;;;;;;18.91;61.19;100967.66;4976857;28;20062;-57
2023/07/01 00:32:10;;;;;;;4.18;2.67;;;;;;;18.62;61.40;100967.09;4976527;28;20039;-51
2023/07/01 00:34:36;;;;;;;3.50;2.00;;;;;;;18.39;61.87;100968.22;4975843;28;20066;-51
2023/07/01 00:37:03;;;;;;;3.88;2.60;;;;;;;18.79;61.52;100964.28;4975989;28;20026;-54
2023/07/01 00:39:29;;;;;;;6.03;2.30;;;;;;;19.09;61.31;100957.47;4975893;28;20074;-53
2023/07/01 00:41:56;;;;;;;4.20;2.78;;;;;;;19.24;60.41;100955.69;4975486;28;20031;-56
2023/07/01 00:44:22;;;;;;;4.32;2.30;;;;;;;18.56;61.95;100957.28;4975336;28;20076;-51
2023/07/01 00:46:49;;;;;;;3.40;2.50;;;;;;;18.34;62.44;100960.03;4975639;28;20037;-55
2023/07/01 00:49:15;;;;;;;3.10;2.20;;;;;;;18.37;63.39;100958.69;4975336;28;20018;-52
2023/07/01 00:51:42;;;;;;;5.95;2.38;;;;;;;18.66;63.15;100959.28;4975096;28;20033;-51
2023/07/01 00:54:08;;;;;;;3.13;2.38;;;;;;;18.52;62.76;100956.13;4975221;28;20471;-52
2023/07/01 00:56:34;;;;;;;5.93;2.28;;;;;;;18.60;62.72;100944.84;4975328;28;20035;-52
2023/07/01 00:59:01;;;;;;;3.40;2.28;;;;;;;18.49;64.19;100948.53;4975374;28;20030;-51
2023/07/01 01:01:36;;;;;;;4.00;2.10;;;;;;;18.31;63.51;100943.44;4975410;28;20029;-52
2023/07/01 01:04:34;;;;;;;;;;;;;;;18.48;64.31;100942.25;4975867;28;20387;-50
2023/07/01 01:07:07;;;;;;;4.63;2.63;;;;;;;18.31;64.40;100933.41;4932490;28;19914;-51
2023/07/01 01:09:53;;;;;;;3.55;2.65;;;;;;;18.51;63.83;100930.13;4975342;28;20031;-51
2023/07/01 01:12:21;;;;;;;3.80;2.45;;;;;;;18.69;64.01;100923.53;4975288;28;20022;-51
2023/07/01 01:14:50;;;;;;;4.60;2.78;;;;;;;18.47;63.85;100926.28;4975025;28;20114;-51
2023/07/01 01:17:19;;;;;;;5.57;2.88;;;;;;;18.40;63.54;100923.78;4975406;28;20054;-51
2023/07/01 01:19:50;;;;;;;4.30;2.85;;;;;;;18.35;64.00;100921.00;4975220;28;20018;-52
2023/07/01 01:22:26;;;;;;;3.58;2.47;;;;;;;18.32;63.97;100917.97;4975033;28;20027;-49
2023/07/01 01:25:00;;;;;;;5.95;2.90;;;;;;;18.15;65.31;100916.19;4975057;28;20518;-50
2023/07/01 01:27:30;;;;;;;9.57;3.15;;;;;;;18.41;64.42;100913.75;4974875;28;20034;-52
2023/07/01 01:29:59;;;;;;;4.82;2.70;;;;;;;18.22;64.26;100913.28;4974818;28;20079;-52
2023/07/01 01:32:25;;;;;;;7.10;2.88;;;;;;;18.07;65.47;100913.13;4975072;28;20027;-53
2023/07/01 01:34:51;;;;;;;4.97;2.80;;;;;;;18.41;65.11;100924.59;4974807;28;20490;-54
2023/07/01 01:37:44;;;;;;;6.97;2.65;;;;;;;18.31;64.49;100913.63;4974949;28;20031;-53
2023/07/01 01:40:40;;;;;;;5.57;2.90;;;;;;;18.52;64.08;100922.78;4974499;28;20042;-53
2023/07/01 01:43:38;;;;;;;5.45;2.60;;;;;;;18.64;63.58;100924.25;4974134;28;20037;-53
2023/07/01 01:46:07;;;;;;;5.88;2.90;;;;;;;18.52;63.54;100920.91;4961956;28;20058;-53
2023/07/01 01:48:34;;;;;;;4.10;2.65;;;;;;;18.16;65.01;100915.13;4975116;28;20471;-53
2023/07/01 01:51:03;;;;;;;5.32;2.83;;;;;;;18.24;64.43;100921.16;4974593;28;20027;-53
2023/07/01 01:53:30;;;;;;;4.60;2.88;;;;;;;18.14;65.07;100927.28;4974956;28;20029;-51
2023/07/01 01:55:57;;;;;;;10.75;2.90;;;;;;;18.29;64.74;100923.94;4974593;28;20035;-53
2023/07/01 01:58:24;;;;;;;7.38;3.03;;;;;;;18.31;64.60;100924.47;4973966;28;20106;-52
2023/07/01 02:00:50;;;;;;;9.23;3.17;;;;;;;18.56;64.29;100924.75;4974337;28;20030;-50
2023/07/01 02:03:17;;;;;;;8.80;3.30;;;;;;;18.75;63.77;100921.66;4974810;28;20086;-53
2023/07/01 02:05:43;;;;;;;6.43;3.13;;;;;;;18.75;63.04;100917.06;4975074;28;20117;-52
2023/07/01 02:08:09;;;;;;;6.78;2.95;;;;;;;18.82;63.00;100916.84;4974411;28;20041;-53
2023/07/01 02:10:35;;;;;;;9.32;3.53;;;;;;;18.98;62.93;100918.59;4974582;28;20027;-53
2023/07/01 02:13:02;;;;;;;9.98;3.10;;;;;;;19.57;60.95;100915.72;4974721;28;20019;-52
2023/07/01 02:15:29;;;;;;;6.40;3.03;;;;;;;19.84;59.18;100914.78;4974221;28;20495;-52
2023/07/01 02:17:55;;;;;;;10.02;4.38;;;;;;;19.63;59.25;100917.41;4974195;28;20048;-53
2023/07/01 02:20:22;;;;;;;7.25;3.22;;;;;;;19.44;59.90;100914.31;4974526;28;20019;-51
2023/07/01 02:22:48;;;;;;;7.05;3.70;;;;;;;19.05;61.24;100912.97;4956869;28;20022;-51
2023/07/01 02:25:15;;;;;;;7.07;3.13;;;;;;;19.40;60.20;100915.09;4974239;28;20456;-52
2023/07/01 02:27:41;;;;;;;9.40;3.78;;;;;;;19.51;59.49;100911.34;4973919;28;20034;-51
2023/07/01 02:30:08;;;;;;;8.50;3.70;;;;;;;19.62;59.16;100913.06;4974106;28;20031;-52
2023/07/01 02:32:34;;;;;;;15.00;4.05;;;;;;;19.48;59.57;100901.00;4974060;28;20030;-52
2023/07/01 02:35:00;;;;;;;13.93;4.10;;;;;;;19.10;60.24;100911.13;4973993;28;20027;-54
2023/07/01 02:37:26;;;;;;;6.68;3.38;;;;;;;18.78;61.68;100902.19;4956842;28;20027;-52
2023/07/01 02:39:52;;;;;;;7.22;3.47;;;;;;;19.17;60.76;100919.84;4974014;28;20027;-53
2023/07/01 02:42:21;;;;;;;6.88;3.10;;;;;;;18.56;62.46;100905.75;4973949;28;20027;-53
2023/07/01 02:44:49;;;;;;;7.00;3.58;;;;;;;18.76;61.52;100910.56;4973754;28;20057;-53
2023/07/01 02:47:16;;;;;;;7.97;3.90;;;;;;;18.59;62.36;100905.22;4973803;28;20405;-52
2023/07/01 02:49:45;;;;;;;6.90;3.95;;;;;;;18.18;63.91;100909.44;4973850;28;20033;-54
2023/07/01 02:52:11;;;;;;;14.93;4.47;;;;;;;17.90;65.16;100910.50;4973783;28;20025;-52
2023/07/01 02:54:41;;;;;;;6.97;3.90;;;;;;;17.97;65.83;100908.41;4974005;28;20073;-53
2023/07/01 02:57:09;;;;;;;7.05;4.13;;;;;;;17.88;65.47;100908.03;4977603;28;20031;-52
2023/07/01 02:59:36;;;;;;;9.15;4.90;;;;;;;17.38;67.53;100910.88;4977489;28;20491;-52
2023/07/01 03:02:04;;;;;;;7.82;4.55;;;;;;;17.10;68.89;100907.25;4977365;28;20519;-52
2023/07/01 03:04:31;;;;;;;7.88;4.07;;;;;;;16.96;69.49;100905.09;4977491;28;20027;-53
2023/07/01 03:06:57;;;;;;;9.77;5.05;;;;;;;16.61;71.31;100908.84;4977543;28;20106;-50
2023/07/01 03:09:23;;;;;;;11.75;4.93;;;;;;;16.24;72.78;100914.66;4977401;28;20030;-52
2023/07/01 03:11:51;;;;;;;7.75;4.43;;;;;;;16.22;73.16;100919.50;4977802;28;20034;-52
2023/07/01 03:14:18;;;;;;;9.20;5.55;;;;;;;15.87;74.53;100914.19;4977232;28;20114;-51
2023/07/01 03:16:46;;;;;;;8.27;4.82;;;;;;;15.69;75.77;100908.97;4977501;28;20035;-52
2023/07/01 03:19:12;;;;;;;9.73;5.30;;;;;;;15.56;76.50;100920.81;4977449;28;20050;-49
2023/07/01 03:21:39;;;;;;;8.82;4.63;;;;;;;15.26;78.19;100924.47;4977214;28;20030;-49
2023/07/01 03:24:06;;;;;;;7.82;4.72;;;;;;;15.19;78.90;100922.94;4977217;28;20115;-50
2023/07/01 03:26:32;;;;;;;7.95;5.10;;;;;;;15.17;79.39;100933.97;4977117;28;20448;-51
2023/07/01 03:28:58;;;;;;;10.73;5.20;;;;;;;15.14;79.05;100926.34;4977119;28;20103;-51
2023/07/01 03:31:25;;;;;;;11.93;5.63;;;;;;;15.04;79.79;100932.31;4977414;28;20035;-50
2023/07/01 03:33:51;;;;;;;9.73;5.18;;;;;;;15.03;79.79;100929.84;4977072;28;20033;-50
2023/07/01 03:36:17;;;;;;;12.10;5.47;;;;;;;14.69;81.20;100934.94;4976884;28;20030;-52
2023/07/01 03:38:43;;;;;;;9.30;5.38;;;;;;;14.65;82.09;100932.94;4976889;28;20440;-51
2023/07/01 03:41:10;;;;;;;9.32;5.18;;;;;;;14.43;83.39;100932.59;4976942;28;20019;-51
2023/07/01 03:43:36;;;;;;;7.38;5.03;;;;;;;14.13;84.85;100938.00;4976642;28;20421;-52
2023/07/01 03:46:02;;;;;;;6.90;4.57;;;;;;;14.13;85.35;100938.00;4977252;28;20476;-51
2023/07/01 03:48:29;;;;;;;5.55;4.20;;;;;;;14.12;85.81;100939.06;4976723;28;20066;-52
2023/07/01 03:50:55;;;;;;;7.70;4.80;;;;;;;14.06;86.25;100943.47;4959451;28;20114;-52
2023/07/01 03:53:22;;;;;;;8.60;4.65;;;;;;;13.91;87.29;100946.53;4976646;28;20101;-52
2023/07/01 03:55:48;;;;;;;8.82;5.43;;;;;;;13.77;88.55;100939.69;4976565;28;20106;-51
2023/07/01 03:58:21;;;;;;;10.95;5.45;;;;;;;13.47;89.95;100945.78;4976534;28;20031;-51
2023/07/01 04:00:52;;;;;;;7.13;4.88;;;;;;;13.65;89.14;100957.59;4976529;28;20568;-51
2023/07/01 04:03:18;;;;;;;5.88;4.10;;;;;;;13.47;89.88;100961.91;4976456;28;20027;-51
2023/07/01 04:05:44;;;;;;;6.88;4.20;;;;;;;13.66;89.35;100967.34;4976118;28;20031;-50
2023/07/01 04:08:10;;;;;;;6.03;3.97;;;;;;;13.49;90.40;100975.13;4976689;28;20106;-50
2023/07/01 04:10:37;;;;;;;6.72;5.18;;;;;;;13.42;90.77;100971.69;4976333;28;20027;-48
2023/07/01 04:13:04;;;;;;;5.50;4.30;;;;;;;13.50;90.57;100973.28;4976542;28;20432;-48
2023/07/01 04:15:30;;;;;;;4.75;4.13;;;;;;;13.52;90.07;100984.63;4976216;28;20023;-48
2023/07/01 04:17:57;;;;;;;7.47;4.93;;;;;;;13.47;89.91;100982.59;4976300;28;20034;-50
2023/07/01 04:20:23;;;;;;;8.40;4.93;;;;;;;13.20;91.90;100985.50;4976176;28;20033;-50
2023/07/01 04:22:49;;;;;;;5.25;4.13;;;;;;;13.22;92.44;100985.34;4976129;28;20035;-51
2023/07/01 04:25:15;;;;;;;6.90;5.38;;;;;;;13.19;92.28;100975.78;4976114;28;20062;-51
2023/07/01 04:27:44;;;;;;;10.30;4.57;;;;;;;13.17;92.35;100983.25;4958785;28;20023;-47
2023/07/01 04:30:13;;;;;;;6.88;4.70;;;;;;;13.10;92.36;100981.66;4976256;28;20433;-50
2023/07/01 04:32:39;;;;;;;10.73;5.75;;;;;;;12.96;93.26;100983.63;4975908;28;20026;-49
2023/07/01 04:35:06;;;;;;;7.40;5.03;;;;;;;12.95;93.82;100987.38;4976163;28;20105;-51
2023/07/01 04:37:32;;;;;;;8.30;5.60;;;;;;;12.92;94.31;100985.09;4975894;28;20022;-49
2023/07/01 04:39:59;;;;;;;7.57;5.75;;;;;;;12.98;93.68;100978.03;4976179;28;20055;-52
2023/07/01 04:42:25;;;;;;;7.57;5.47;;;;;;;13.08;93.16;100992.63;4975960;28;20019;-50
2023/07/01 04:44:54;;;;;;;6.25;5.30;;;;;;;13.07;92.68;100991.00;4975825;28;20054;-52
2023/07/01 04:47:27;;;;;;;6.60;4.97;;;;;;;13.09;92.90;100998.81;4975921;28;20027;-51
2023/07/01 04:49:53;;;;;;;7.60;5.68;;;;;;;13.09;92.69;100994.28;4975630;28;20109;-50
2023/07/01 04:52:23;;;;;;;9.70;6.13;;;;;;;13.05;93.03;100984.19;4975954;28;20035;-50
2023/07/01 04:54:51;;;;;;;10.48;5.60;;;;;;;13.16;92.16;100989.69;4975830;28;20031;-51
2023/07/01 04:57:17;;;;;;;5.97;4.38;;;;;;;12.98;92.15;100994.16;4975475;28;20033;-50
2023/07/01 04:59:43;;;;;;;5.85;4.43;;;;;;;13.05;91.85;100986.88;4975454;28;20034;-51
2023/07/01 05:02:09;;;;;;;7.15;4.63;;;;;;;12.90;92.88;100993.38;4975438;28;20039;-52
2023/07/01 05:04:37;;;;;;;8.80;5.18;;;;;;;12.95;91.91;100993.56;4975417;28;20065;-51
2023/07/01 05:07:04;;;;;;;6.85;4.63;;;;;;;12.95;92.20;100988.19;4975319;28;20471;-51
2023/07/01 05:09:30;;;;;;;7.40;5.05;;;;;;;12.95;91.95;100987.38;4975224;28;20118;-51
2023/07/01 05:11:56;;;;;;;6.80;5.40;;;;;;;13.02;91.49;100993.50;4975227;28;20113;-51
2023/07/01 05:14:23;;;;;;;9.55;4.78;;;;;;;12.89;92.20;100991.75;4975271;28;20480;-51
2023/07/01 05:16:49;;;;;;;6.35;4.32;;;;;;;13.05;91.22;100984.19;4975068;28;20041;-52
2023/07/01 05:19:15;;;;;;;6.88;4.43;;;;;;;13.04;91.08;100990.59;4974462;28;20022;-51
2023/07/01 05:21:52;;;;;;;7.30;4.72;;;;;;;13.10;91.21;100992.41;4975101;28;20034;-51
2023/07/01 05:24:19;;;;;;;7.25;4.63;;;;;;;12.97;91.99;100987.13;4975113;28;20023;-50
2023/07/01 05:26:49;;;;;;;7.05;4.80;;;;;;;13.10;91.56;100995.09;4974984;28;20498;-52
2023/07/01 05:29:16;;;;;;;5.70;3.95;;;;;;;13.09;91.53;100990.75;4974927;28;20027;-52
2023/07/01 05:31:42;;;;;;;6.45;4.22;;;;;;;12.96;91.47;100989.00;4974879;28;20046;-52
2023/07/01 05:34:08;;;;;;;5.18;4.03;;;;;;;13.02;90.83;100998.88;4974764;28;20038;-51
2023/07/01 05:36:36;;;;;;;5.43;4.10;;;;;;;13.02;90.66;101001.56;4974756;28;20030;-52
2023/07/01 05:39:03;;;;;;;6.30;3.90;;;;;;;12.93;90.86;100995.63;4975326;28;20034;-52
2023/07/01 05:41:30;;;;;;;5.45;4.10;;;;;;;12.94;91.14;101005.34;4974719;28;20027;-51
2023/07/01 05:43:56;;;;;;;6.95;4.55;;;;;;;12.84;91.89;101005.00;4974430;28;20126;-50
2023/07/01 05:46:22;;;;;;;6.05;4.00;;;;;;;12.80;92.02;101003.78;4974791;28;20076;-52
2023/07/01 05:48:48;;;;;;;4.53;3.55;;;;;;;12.84;92.01;101007.69;4974586;28;20070;-53
2023/07/01 05:51:14;;;;;;;6.45;3.90;;;;;;;12.77;92.44;101009.59;4974787;28;20031;-50
2023/07/01 05:53:41;;;;;;;5.43;3.90;;;;;;;12.79;92.21;101012.06;4974854;28;20023;-50
2023/07/01 05:56:07;;;;;;;5.63;3.80;;;;;;;12.84;91.76;101006.88;4974419;28;20061;-49
2023/07/01 05:58:33;;;;;;;6.47;4.03;;;;;;;12.72;92.13;101004.06;4974569;28;20113;-49
2023/07/01 06:01:00;;;;;;;7.07;4.10;;;;;;;12.76;91.74;101012.47;4974510;28;20476;-51
2023/07/01 06:03:26;;;;;;;5.55;3.95;;;;;;;12.73;92.19;101012.94;4974305;28;20035;-49
2023/07/01 06:05:52;;;;;;;5.68;3.50;;;;;;;12.72;92.18;101012.13;4974412;28;20026;-48
2023/07/01 06:08:18;;;;;;;4.57;3.53;;;;;;;12.56;93.13;101023.34;4957036;28;20034;-49
2023/07/01 06:10:45;;;;;;;8.23;4.07;;;;;;;12.55;93.43;101021.72;4974196;28;20105;-49
2023/07/01 06:13:11;;;;;;;3.63;3.30;;;;;;;12.63;93.08;101019.59;4974414;28;20027;-50
2023/07/01 06:15:37;;;;;;;5.85;3.70;;;;;;;12.67;92.96;101014.63;4974286;28;20529;-49
2023/07/01 06:18:03;;;;;;;5.43;3.47;;;;;;;12.73;92.69;101021.00;4974746;28;20365;-49
2023/07/01 06:20:30;;;;;;;6.55;3.50;;;;;;;12.84;92.13;101015.75;4974527;28;20027;-52
2023/07/01 06:22:56;;;;;;;4.88;3.60;;;;;;;12.71;92.38;101013.13;4974227;28;20038;-49
2023/07/01 06:25:22;;;;;;;4.75;3.53;;;;;;;12.76;91.77;101013.31;4974161;28;20023;-49
2023/07/01 06:27:48;;;;;;;4.30;3.60;;;;;;;12.81;92.00;101018.03;4973983;28;20034;-46
2023/07/01 06:30:14;;;;;;;4.95;3.67;;;;;;;12.82;91.63;101017.00;4979048;28;20542;-46
2023/07/01 06:32:41;;;;;;;6.82;3.20;;;;;;;12.91;90.56;101016.53;4980593;28;20058;-49
2023/07/01 06:35:07;;;;;;;5.40;3.33;;;;;;;12.77;91.32;101020.34;4980578;28;20141;-49
2023/07/01 06:37:34;;;;;;;4.93;3.08;;;;;;;12.58;92.63;101019.41;4980488;28;20031;-50
2023/07/01 06:40:00;;;;;;;6.40;3.70;;;;;;;12.60;92.99;101030.78;4980785;28;20030;-47
2023/07/01 06:42:26;;;;;;;6.88;3.55;;;;;;;12.75;92.50;101029.66;4980685;28;20065;-50
2023/07/01 06:44:52;;;;;;;4.57;2.95;;;;;;;12.83;91.59;101024.84;4980226;28;20035;-50
2023/07/01 06:47:18;;;;;;;5.30;3.20;;;;;;;12.89;91.18;101023.16;4980884;28;20053;-50
2023/07/01 06:49:45;;;;;;;4.57;3.63;;;;;;;12.83;91.63;101030.22;4980729;28;20030;-49
2023/07/01 06:52:11;;;;;;;5.53;3.83;;;;;;;12.85;91.36;101027.31;4980706;28;20141;-50
2023/07/01 06:54:37;;;;;;;5.95;4.20;;;;;;;12.69;92.04;101026.78;4980344;28;20456;-49
2023/07/01 06:57:03;;;;;;;5.30;3.65;;;;;;;12.63;92.86;101024.97;4980779;28;20105;-47
2023/07/01 06:59:30;;;;;;;6.90;3.60;;;;;;;12.72;92.19;101028.22;4980239;28;20026;-48
2023/07/01 07:01:56;;;;;;;7.70;4.30;;;;;;;12.75;91.87;101021.59;4980360;28;20069;-49
2023/07/01 07:04:22;;;;;;;6.85;4.65;;;;;;;12.71;91.91;101021.19;4980227;28;20375;-53
2023/07/01 07:06:48;;;;;;;4.82;4.20;;;;;;;12.77;92.06;101014.97;4980095;28;20110;-49
2023/07/01 07:09:15;;;;;;;6.43;4.47;;;;;;;12.72;92.68;101012.13;4980327;28;20399;-49
2023/07/01 07:11:42;;;;;;;6.35;4.25;;;;;;;12.70;93.33;101014.16;4980175;28;20078;-47
2023/07/01 07:14:08;;;;;;;5.20;3.78;;;;;;;12.64;93.92;101012.34;4980173;28;20088;-48
2023/07/01 07:16:35;;;;;;;6.10;3.95;;;;;;;12.66;94.11;101011.13;4980687;28;20023;-50
2023/07/01 07:19:01;;;;;;;6.82;3.50;;;;;;;12.71;93.10;101013.13;4980550;28;20098;-50
2023/07/01 07:21:27;;;;;;;4.05;3.38;;;;;;;12.81;92.99;101002.75;4980228;28;20038;-47
2023/07/01 07:23:54;;;;;;;5.43;3.88;;;;;;;12.75;93.45;101005.47;4980218;28;20510;-49
2023/07/01 07:26:20;;;;;;;4.90;3.67;;;;;;;12.65;94.25;101012.13;4980360;28;20082;-49
2023/07/01 07:28:46;;;;;;;4.63;3.70;;;;;;;12.62;94.21;101003.69;4979919;28;20027;-47
2023/07/01 07:31:12;;;;;;;5.75;4.00;;;;;;;12.63;94.15;101008.03;4980146;28;20030;-46
2023/07/01 07:33:38;;;;;;;4.82;3.70;;;;;;;12.65;93.83;101000.56;4980382;28;20026;-49
2023/07/01 07:36:05;;;;;;;5.60;3.63;;;;;;;12.54;94.43;101002.06;4979890;28;20027;-49
2023/07/01 07:38:31;;;;;;;4.45;3.90;;;;;;;12.54;94.53;101001.25;4962585;28;20379;-49
2023/07/01 07:40:57;;;;;;;5.85;3.72;;;;;;;12.51;95.17;101001.69;4978178;28;20073;-48
2023/07/01 07:43:24;;;;;;;5.80;4.03;;;;;;;12.50;95.36;100997.38;4977127;28;20106;-50
2023/07/01 07:45:50;;;;;;;6.57;4.10;;;;;;;12.60;95.12;100993.19;4977107;28;20030;-48
2023/07/01 07:48:16;;;;;;;6.18;4.90;;;;;;;12.53;95.98;100992.38;4976673;28;20033;-49
2023/07/01 07:50:42;;;;;;;5.82;4.28;;;;;;;12.61;95.79;100994.81;4976739;28;20042;-51
2023/07/01 07:53:08;;;;;;;6.47;3.90;;;;;;;12.67;95.76;100999.31;4976785;28;20034;-51
2023/07/01 07:55:35;;;;;;;5.95;4.18;;;;;;;12.58;95.73;100995.25;4977044;28;20023;-48
2023/07/01 07:58:02;;;;;;;6.45;4.78;;;;;;;12.57;95.74;100998.97;4976626;28;20030;-51
2023/07/01 08:00:29;;;;;;;5.20;4.22;;;;;;;12.62;95.37;100996.47;4976542;28;20026;-50
2023/07/01 08:02:55;;;;;;;5.15;3.95;;;;;;;12.79;94.81;100994.09;4976517;28;20086;-51
2023/07/01 08:05:21;;;;;;;4.95;4.20;;;;;;;12.72;95.03;100996.00;4976484;28;20410;-51
2023/07/01 08:07:48;;;;;;;5.85;4.32;;;;;;;12.64;94.24;100998.94;4976455;28;20070;-48
2023/07/01 08:10:16;;;;;;;4.95;3.97;;;;;;;12.65;94.73;100989.81;4976939;28;20043;-49
2023/07/01 08:12:42;;;;;;;7.10;4.63;;;;;;;12.58;95.62;100995.25;4976377;28;20034;-48
2023/07/01 08:15:10;;;;;;;8.23;4.45;;;;;;;12.60;96.35;101000.38;4977486;28;20471;-49
2023/07/01 08:17:36;;;;;;;9.57;5.10;;;;;;;12.67;95.86;100987.75;4976370;28;20034;-50
2023/07/01 08:20:04;;;;;;;7.70;4.80;;;;;;;12.66;95.88;101002.22;4958986;28;20347;-48
2023/07/01 08:22:30;;;;;;;5.03;4.13;;;;;;;12.72;95.73;100996.00;4976244;28;20106;-52
2023/07/01 08:24:58;;;;;;;6.22;4.30;;;;;;;12.67;95.59;101003.88;4976128;28;20027;-49
2023/07/01 08:27:24;;;;;;;6.05;4.18;;;;;;;12.67;95.41;101001.19;4976391;28;20376;-52
2023/07/01 08:29:51;;;;;;;4.72;3.88;;;;;;;12.68;95.51;100994.78;4976097;28;20035;-49
2023/07/01 08:32:17;;;;;;;4.93;3.67;;;;;;;12.73;94.72;100994.94;4975933;28;20023;-48
2023/07/01 08:34:43;;;;;;;5.10;4.10;;;;;;;12.66;94.82;100992.31;4975942;28;20022;-52
2023/07/01 08:37:09;;;;;;;5.20;3.83;;;;;;;12.57;96.42;100987.41;4975942;28;20386;-48
2023/07/01 08:39:36;;;;;;;6.47;3.90;;;;;;;12.57;96.62;100988.22;4976122;28;20023;-48
2023/07/01 08:42:09;;;;;;;7.18;3.80;;;;;;;12.61;96.27;100989.44;4975815;28;20066;-50
2023/07/01 08:44:40;;;;;;;7.22;4.22;;;;;;;12.56;96.42;100983.91;4975758;28;20058;-50
2023/07/01 08:47:08;;;;;;;6.22;4.18;;;;;;;12.57;96.33;100976.66;4975738;28;20030;-49
2023/07/01 08:49:37;;;;;;;4.57;3.63;;;;;;;12.61;95.79;100977.88;4975812;28;20026;-51
2023/07/01 08:52:13;;;;;;;4.15;3.30;;;;;;;12.66;95.90;100978.06;4975043;28;20070;-52
2023/07/01 08:54:40;;;;;;;4.15;3.50;;;;;;;12.76;95.33;100981.06;4975709;28;20026;-49
2023/07/01 08:57:09;;;;;;;5.55;3.70;;;;;;;12.80;95.27;100976.91;4975498;28;20035;-49
2023/07/01 08:59:36;;;;;;;6.32;3.67;;;;;;;12.78;95.16;100978.19;4975502;28;20022;-45
2023/07/01 09:02:02;;;;;;;5.90;3.90;;;;;;;12.80;95.29;100976.91;4975743;28;20467;-46
2023/07/01 09:04:29;;;;;;;5.68;3.80;;;;;;;12.79;95.00;100977.16;4975349;28;20062;-49
2023/07/01 09:06:55;;;;;;;4.05;3.00;;;;;;;12.74;95.18;100977.78;4975086;28;20114;-48
2023/07/01 09:09:21;;;;;;;5.07;3.47;;;;;;;12.83;94.74;100975.69;4975326;28;20069;-46
2023/07/01 09:11:47;;;;;;;4.93;4.00;;;;;;;12.78;94.68;100973.66;4975261;28;20537;-46
2023/07/01 09:14:14;;;;;;;6.95;3.55;;;;;;;12.77;94.86;100976.53;4975142;28;20030;-50
2023/07/01 09:16:40;;;;;;;7.65;3.85;;;;;;;12.75;95.33;100976.75;4975171;28;20026;-45
2023/07/01 09:19:14;;;;;;;7.25;4.05;;;;;;;12.76;95.55;100977.56;4975465;28;20097;-48
2023/07/01 09:21:41;;;;;;;5.65;3.72;;;;;;;12.85;94.83;100979.78;4975092;28;20109;-47
2023/07/01 09:24:10;;;;;;;5.50;3.50;;;;;;;12.82;94.49;100977.53;4975054;28;20476;-49
2023/07/01 09:26:36;;;;;;;5.75;4.45;;;;;;;12.86;94.06;100978.72;4974999;28;20035;-46
2023/07/01 09:29:16;;;;;;;5.57;3.60;;;;;;;12.74;94.65;100985.03;4975173;28;20475;-49
2023/07/01 09:31:51;;;;;;;6.15;3.60;;;;;;;12.83;94.20;100979.19;4975055;28;20061;-49
2023/07/01 09:34:18;;;;;;;6.45;4.40;;;;;;;12.63;95.04;100979.31;4974889;28;20432;-47
2023/07/01 09:36:45;;;;;;;5.80;3.80;;;;;;;12.79;94.51;100988.72;4975007;28;20097;-46
2023/07/01 09:39:11;;;;;;;5.00;3.40;;;;;;;12.76;94.28;100981.06;4957641;28;20027;-46
2023/07/01 09:41:38;;;;;;;5.80;3.88;;;;;;;12.80;94.23;100982.28;4974794;28;20108;-50
2023/07/01 09:44:15;;;;;;;5.63;3.65;;;;;;;12.69;94.85;100983.81;4974490;28;20043;-46
2023/07/01 09:46:43;;;;;;;6.35;3.58;;;;;;;12.64;95.52;100982.81;4975040;28;20086;-49
2023/07/01 09:49:10;;;;;;;4.40;3.75;;;;;;;12.72;95.24;100984.44;4974563;28;20051;-47
2023/07/01 09:51:50;;;;;;;4.47;3.42;;;;;;;12.61;95.67;100989.44;4974721;28;20023;-46
2023/07/01 09:54:24;;;;;;;5.53;3.80;;;;;;;12.51;95.67;100978.34;4974586;28;20061;-48
2023/07/01 09:56:52;;;;;;;5.43;3.50;;;;;;;12.66;94.76;100991.50;4974765;28;20054;-49
2023/07/01 09:59:20;;;;;;;7.40;4.07;;;;;;;12.57;95.19;100987.41;4974652;28;20050;-49
2023/07/01 10:01:47;;;;;;;8.75;3.95;;;;;;;12.63;94.99;100991.91;4974410;28;20027;-49
2023/07/01 10:04:14;;;;;;;6.05;3.50;;;;;;;12.63;94.63;100992.72;4973945;28;20387;-50
2023/07/01 10:06:44;;;;;;;5.70;3.45;;;;;;;12.68;94.25;100986.72;4974317;28;20023;-49
2023/07/01 10:09:10;;;;;;;6.45;3.20;;;;;;;12.68;94.64;100989.41;4974445;28;20143;-49
2023/07/01 10:11:38;;;;;;;5.53;3.63;;;;;;;12.57;95.46;100995.47;4974347;28;20018;-50
2023/07/01 10:14:06;;;;;;;5.45;4.25;;;;;;;12.63;96.05;100986.53;4974545;28;20019;-50
2023/07/01 10:16:33;;;;;;;6.55;4.20;;;;;;;12.74;95.15;100993.91;4974186;28;20027;-50
2023/07/01 10:19:00;;;;;;;7.05;4.90;;;;;;;12.56;96.03;100989.28;4956998;28;20027;-54
2023/07/01 10:21:29;;;;;;;4.85;4.00;;;;;;;12.51;96.76;100993.63;4974312;28;20027;-48
2023/07/01 10:23:59;;;;;;;5.95;4.65;;;;;;;12.51;96.93;100993.63;4974214;28;20114;-49
2023/07/01 10:26:47;;;;;;;5.47;4.10;;;;;;;12.41;97.57;100994.09;4974169;28;20356;-46
2023/07/01 10:29:39;;;;;;;5.95;4.10;;;;;;;12.58;96.64;100987.19;4974142;28;20031;-50
2023/07/01 10:32:08;;;;;;;5.45;4.15;;;;;;;12.64;95.89;100983.63;4965919;28;20043;-49
2023/07/01 10:34:53;;;;;;;8.20;4.38;;;;;;;12.60;96.20;100986.97;4974007;28;20031;-49
2023/07/01 10:37:21;;;;;;;5.25;4.00;;;;;;;12.45;96.81;100983.75;4973819;28;20030;-49
2023/07/01 10:39:48;;;;;;;5.70;4.35;;;;;;;12.46;97.17;100985.41;4973912;28;20547;-49
2023/07/01 10:42:32;;;;;;;6.43;4.57;;;;;;;12.53;96.62;100987.00;4974045;28;20066;-49
2023/07/01 10:45:10;;;;;;;7.13;3.40;;;;;;;12.54;96.33;100983.28;4973805;28;20043;-47
2023/07/01 10:47:37;;;;;;;4.75;3.75;;;;;;;12.62;95.96;100984.91;4973860;28;20414;-45
2023/07/01 10:50:06;;;;;;;7.68;5.03;;;;;;;12.50;96.94;100986.63;4974043;28;20163;-48
2023/07/01 10:52:52;;;;;;;5.72;3.88;;;;;;;12.45;97.19;100986.44;4973904;28;20022;-46
2023/07/01 10:55:46;;;;;;;4.75;3.55;;;;;;;12.63;96.20;100983.84;4973895;28;20483;-47
2023/07/01 10:58:26;;;;;;;4.60;3.83;;;;;;;12.55;96.16;100982.25;4973937;28;20490;-48
2023/07/01 11:00:54;;;;;;;5.30;3.78;;;;;;;12.54;96.48;100985.97;4973941;28;20475;-49
2023/07/01 11:03:35;;;;;;;5.45;3.60;;;;;;;12.48;96.61;100983.31;4973818;28;20030;-49
2023/07/01 11:06:12;;;;;;;4.95;3.80;;;;;;;12.47;96.12;100982.50;4973734;28;20019;-49
2023/07/01 11:08:49;;;;;;;5.63;3.63;;;;;;;12.46;96.62;100990.78;4973866;28;20062;-47
2023/07/01 11:11:28;;;;;;;4.35;3.42;;;;;;;12.51;96.43;100990.97;4973773;28;20395;-46
2023/07/01 11:14:08;;;;;;;5.43;4.10;;;;;;;12.62;95.96;100984.91;4973822;28;20030;-50
2023/07/01 11:16:36;;;;;;;5.10;3.88;;;;;;;12.53;96.02;100988.88;4976166;28;20489;-46
2023/07/01 11:19:07;;;;;;;6.18;4.25;;;;;;;12.50;96.41;100983.94;4977544;28;20054;-49
2023/07/01 11:21:34;;;;;;;6.57;4.00;;;;;;;12.50;96.69;100983.94;4977642;28;20037;-47
2023/07/01 11:24:08;;;;;;;5.00;3.58;;;;;;;12.48;97.34;100986.00;4977577;28;20447;-48
2023/07/01 11:26:37;;;;;;;5.30;4.15;;;;;;;12.39;97.26;100986.25;4977561;28;20027;-47
2023/07/01 11:29:17;;;;;;;5.03;3.53;;;;;;;12.46;97.36;100980.84;4977215;28;20471;-48